createdAt,value
2023-01-19T00:00:10.169Z,-1.47
2023-01-19T00:01:11.375Z,-1.49
2023-01-19T00:02:12.571Z,-1.51
2023-01-19T00:03:13.802Z,-1.53
2023-01-19T00:04:15.014Z,-1.54
2023-01-19T00:05:16.408Z,-1.55
2023-01-19T00:06:18.048Z,-1.51
2023-01-19T00:07:19.302Z,-1.51
2023-01-19T00:08:20.617Z,-1.53
2023-01-19T00:09:21.952Z,-1.48
2023-01-19T00:10:23.344Z,-1.50
2023-01-19T00:11:24.604Z,-1.53
2023-01-19T00:12:26.152Z,-1.49
2023-01-19T00:13:27.485Z,-1.51
2023-01-19T00:14:28.741Z,-1.50
2023-01-19T00:15:29.962Z,-1.48
2023-01-19T00:16:31.245Z,-1.55
2023-01-19T00:17:32.532Z,-1.57
2023-01-19T00:18:33.781Z,-1.56
2023-01-19T00:19:34.971Z,-1.60
2023-01-19T00:20:36.325Z,-1.57
2023-01-19T00:21:37.551Z,-1.59
2023-01-19T00:22:38.741Z,-1.60
2023-01-19T00:23:40.296Z,-1.65
2023-01-19T00:24:41.501Z,-1.66
2023-01-19T00:25:42.906Z,-1.67
2023-01-19T00:26:44.269Z,-1.68
2023-01-19T00:27:45.509Z,-1.70
2023-01-19T00:28:46.773Z,-1.69
2023-01-19T00:29:47.995Z,-1.72
2023-01-19T00:30:50.038Z,-1.70
2023-01-19T00:31:51.322Z,-1.71
2023-01-19T00:32:52.543Z,-1.68
2023-01-19T00:33:53.794Z,-1.69
2023-01-19T00:34:55.071Z,-1.69
2023-01-19T00:35:56.297Z,-1.70
2023-01-19T00:36:57.549Z,-1.72
2023-01-19T00:37:59.383Z,-1.70
2023-01-19T00:39:01.043Z,-1.71
2023-01-19T00:40:02.315Z,-1.73
2023-01-19T00:41:03.609Z,-1.76
2023-01-19T00:42:04.877Z,-1.77
2023-01-19T00:43:06.145Z,-1.74
2023-01-19T00:44:07.357Z,-1.75
2023-01-19T00:45:09.411Z,-1.76
2023-01-19T00:46:10.822Z,-1.71
2023-01-19T00:47:12.066Z,-1.72
2023-01-19T00:48:13.261Z,-1.74
2023-01-19T00:49:14.480Z,-1.70
2023-01-19T00:50:16.462Z,-1.73
2023-01-19T00:51:17.728Z,-1.72
2023-01-19T00:52:19.006Z,-1.67
2023-01-19T00:53:20.256Z,-1.70
2023-01-19T00:54:21.467Z,-1.68
2023-01-19T00:55:23.127Z,-1.72
2023-01-19T00:56:24.406Z,-1.73
2023-01-19T00:57:25.734Z,-1.79
2023-01-19T00:58:26.966Z,-1.79
2023-01-19T00:59:28.192Z,-1.81
2023-01-19T01:00:29.502Z,-1.79
2023-01-19T01:01:45.567Z,-1.74
2023-01-19T01:02:49.684Z,-1.76
2023-01-19T01:03:50.913Z,-1.72
2023-01-19T01:04:52.207Z,-1.73
2023-01-19T01:05:53.441Z,-1.71
2023-01-19T01:06:54.695Z,-1.71
2023-01-19T01:07:55.902Z,-1.73
2023-01-19T01:08:57.092Z,-1.76
2023-01-19T01:09:58.297Z,-1.76
2023-01-19T01:10:59.715Z,-1.76
2023-01-19T01:12:00.982Z,-1.74
2023-01-19T01:13:20.538Z,-1.78
2023-01-19T01:14:23.501Z,-1.80
2023-01-19T01:15:25.504Z,-1.82
2023-01-19T01:16:26.768Z,-1.82
2023-01-19T01:17:28.036Z,-1.84
2023-01-19T01:18:29.332Z,-1.84
2023-01-19T01:19:30.898Z,-1.85
2023-01-19T01:20:32.124Z,-1.83
2023-01-19T01:21:33.392Z,-1.84
2023-01-19T01:22:34.639Z,-1.86
2023-01-19T01:23:35.857Z,-1.86
2023-01-19T01:24:37.074Z,-1.87
2023-01-19T01:25:38.309Z,-1.87
2023-01-19T01:26:39.584Z,-1.90
2023-01-19T01:27:41.169Z,-1.91
2023-01-19T01:28:42.419Z,-1.92
2023-01-19T01:29:43.634Z,-1.93
2023-01-19T01:30:44.879Z,-1.93
2023-01-19T01:31:46.216Z,-1.95
2023-01-19T01:32:47.819Z,-1.92
2023-01-19T01:33:49.092Z,-1.88
2023-01-19T01:34:50.352Z,-1.91
2023-01-19T01:35:51.577Z,-1.89
2023-01-19T01:36:53.023Z,-1.90
2023-01-19T01:37:57.475Z,-1.85
2023-01-19T01:38:59.363Z,-1.87
2023-01-19T01:40:00.627Z,-1.90
2023-01-19T01:41:01.913Z,-1.93
2023-01-19T01:42:04.020Z,-1.84
2023-01-19T01:43:09.924Z,-1.85
2023-01-19T01:44:30.026Z,-1.86
2023-01-19T01:45:35.754Z,-1.90
2023-01-19T01:46:37.054Z,-1.92
2023-01-19T01:47:42.202Z,-1.86
2023-01-19T01:48:46.446Z,-1.86
2023-01-19T01:49:48.267Z,-1.84
2023-01-19T01:50:51.249Z,-1.84
2023-01-19T01:51:54.413Z,-1.87
2023-01-19T01:53:06.563Z,-1.88
2023-01-19T01:54:11.260Z,-1.92
2023-01-19T01:55:12.957Z,-1.91
2023-01-19T01:56:17.490Z,-1.92
2023-01-19T01:57:18.857Z,-1.91
2023-01-19T01:58:20.583Z,-1.91
2023-01-19T01:59:36.350Z,-1.93
2023-01-19T02:00:37.988Z,-1.94
2023-01-19T02:01:39.603Z,-1.92
2023-01-19T02:02:40.895Z,-1.94
2023-01-19T02:03:42.312Z,-1.90
2023-01-19T02:04:55.250Z,-1.92
2023-01-19T02:05:59.423Z,-1.90
2023-01-19T02:07:00.744Z,-1.89
2023-01-19T02:08:04.975Z,-1.88
2023-01-19T02:09:08.615Z,-1.90
2023-01-19T02:10:10.039Z,-1.91
2023-01-19T02:11:11.381Z,-1.92
2023-01-19T02:12:13.163Z,-1.89
2023-01-19T02:13:14.840Z,-1.92
2023-01-19T02:14:18.505Z,-1.92
2023-01-19T02:15:19.997Z,-1.92
2023-01-19T02:16:21.348Z,-1.94
2023-01-19T02:17:22.840Z,-1.90
2023-01-19T02:18:26.266Z,-1.90
2023-01-19T02:19:30.942Z,-1.93
2023-01-19T02:20:35.309Z,-1.94
2023-01-19T02:21:58.763Z,-1.93
2023-01-19T02:23:01.580Z,-1.90
2023-01-19T02:24:03.263Z,-1.92
2023-01-19T02:25:05.197Z,-1.94
2023-01-19T02:26:08.119Z,-1.95
2023-01-19T02:27:10.249Z,-1.99
2023-01-19T02:28:11.646Z,-2.01
2023-01-19T02:29:14.768Z,-2.03
2023-01-19T02:30:16.251Z,-2.04
2023-01-19T02:31:17.695Z,-2.05
2023-01-19T02:32:19.000Z,-2.04
2023-01-19T02:33:20.279Z,-2.05
2023-01-19T02:34:21.799Z,-2.07
2023-01-19T02:35:23.471Z,-2.09
2023-01-19T02:36:26.795Z,-2.09
2023-01-19T02:37:29.647Z,-2.07
2023-01-19T02:38:31.982Z,-2.07
2023-01-19T02:39:36.255Z,-2.10
2023-01-19T02:40:38.263Z,-2.11
2023-01-19T02:41:42.105Z,-2.13
2023-01-19T02:42:45.490Z,-2.15
2023-01-19T02:43:48.088Z,-2.13
2023-01-19T02:44:51.530Z,-2.16
2023-01-19T02:45:52.815Z,-2.07
2023-01-19T02:46:54.454Z,-2.07
2023-01-19T02:47:55.653Z,-2.04
2023-01-19T02:48:59.877Z,-2.02
2023-01-19T02:50:01.143Z,-2.02
2023-01-19T02:51:08.681Z,-2.07
2023-01-19T02:52:15.730Z,-2.09
2023-01-19T02:53:25.221Z,-2.12
2023-01-19T02:54:44.541Z,-2.12
2023-01-19T02:55:49.418Z,-2.12
2023-01-19T02:56:54.907Z,-2.12
2023-01-19T02:58:03.613Z,-2.09
2023-01-19T02:59:04.826Z,-2.10
2023-01-19T03:00:06.077Z,-2.12
2023-01-19T03:01:13.780Z,-2.11
2023-01-19T03:02:24.413Z,-2.11
2023-01-19T03:03:30.475Z,-2.13
2023-01-19T03:04:34.453Z,-2.14
2023-01-19T03:05:35.629Z,-2.16
2023-01-19T03:06:55.307Z,-2.16
2023-01-19T03:08:05.533Z,-2.12
2023-01-19T03:09:25.610Z,-2.14
2023-01-19T03:10:40.163Z,-2.15
2023-01-19T03:11:44.155Z,-2.06
2023-01-19T03:12:53.043Z,-2.06
2023-01-19T03:14:00.379Z,-2.09
2023-01-19T03:15:09.437Z,-2.12
2023-01-19T03:16:21.161Z,-2.06
2023-01-19T03:17:23.004Z,-2.11
2023-01-19T03:18:29.400Z,-2.12
2023-01-19T03:19:38.995Z,-2.16
2023-01-19T03:20:40.813Z,-2.17
2023-01-19T03:21:45.344Z,-2.16
2023-01-19T03:22:49.188Z,-2.15
2023-01-19T03:23:51.006Z,-2.17
2023-01-19T03:24:54.655Z,-2.19
2023-01-19T03:25:57.274Z,-2.19
2023-01-19T03:27:00.867Z,-2.20
2023-01-19T03:28:03.250Z,-2.19
2023-01-19T03:29:05.851Z,-2.21
2023-01-19T03:30:12.978Z,-2.22
2023-01-19T03:31:16.299Z,-2.23
2023-01-19T03:32:19.725Z,-2.17
2023-01-19T03:33:24.550Z,-2.16
2023-01-19T03:34:26.055Z,-2.20
2023-01-19T03:35:30.439Z,-2.22
2023-01-19T03:36:43.378Z,-2.22
2023-01-19T03:37:46.070Z,-2.24
2023-01-19T03:38:48.792Z,-2.21
2023-01-19T03:39:50.191Z,-2.21
2023-01-19T03:40:56.245Z,-2.24
2023-01-19T03:41:59.681Z,-2.27
2023-01-19T03:43:02.516Z,-2.30
2023-01-19T03:44:04.865Z,-2.31
2023-01-19T03:45:07.103Z,-2.36
2023-01-19T03:46:09.082Z,-2.41
2023-01-19T03:47:11.387Z,-2.45
2023-01-19T03:48:12.678Z,-2.45
2023-01-19T03:49:14.079Z,-2.41
2023-01-19T03:50:21.507Z,-2.45
2023-01-19T03:51:22.837Z,-2.46
2023-01-19T03:52:27.900Z,-2.47
2023-01-19T03:53:29.106Z,-2.45
2023-01-19T03:54:31.023Z,-2.47
2023-01-19T03:55:32.495Z,-2.46
2023-01-19T03:56:33.780Z,-2.48
2023-01-19T03:57:35.287Z,-2.52
2023-01-19T03:58:36.489Z,-2.57
2023-01-19T03:59:37.737Z,-2.59
2023-01-19T04:00:39.483Z,-2.65
2023-01-19T04:01:40.880Z,-2.69
2023-01-19T04:02:42.240Z,-2.74
2023-01-19T04:03:43.797Z,-2.76
2023-01-19T04:04:45.176Z,-2.72
2023-01-19T04:05:46.517Z,-2.75
2023-01-19T04:06:47.796Z,-2.75
2023-01-19T04:07:49.541Z,-2.72
2023-01-19T04:08:51.212Z,-2.73
2023-01-19T04:09:52.424Z,-2.75
2023-01-19T04:10:53.622Z,-2.77
2023-01-19T04:11:54.843Z,-2.77
2023-01-19T04:13:00.281Z,-2.80
2023-01-19T04:14:01.767Z,-2.79
2023-01-19T04:15:03.144Z,-2.79
2023-01-19T04:16:05.278Z,-2.79
2023-01-19T04:17:06.508Z,-2.79
2023-01-19T04:18:08.511Z,-2.77
2023-01-19T04:19:09.738Z,-2.77
2023-01-19T04:20:11.080Z,-2.78
2023-01-19T04:21:12.348Z,-2.75
2023-01-19T04:22:13.638Z,-2.75
2023-01-19T04:23:14.854Z,-2.72
2023-01-19T04:24:16.314Z,-2.71
2023-01-19T04:25:17.615Z,-2.66
2023-01-19T04:26:18.846Z,-2.65
2023-01-19T04:27:20.084Z,-2.63
2023-01-19T04:28:21.370Z,-2.63
2023-01-19T04:29:22.640Z,-2.63
2023-01-19T04:30:24.550Z,-2.64
2023-01-19T04:31:25.764Z,-2.67
2023-01-19T04:32:27.004Z,-2.68
2023-01-19T04:33:28.447Z,-2.67
2023-01-19T04:34:29.685Z,-2.66
2023-01-19T04:35:30.993Z,-2.68
2023-01-19T04:36:32.220Z,-2.71
2023-01-19T04:37:33.460Z,-2.71
2023-01-19T04:38:34.816Z,-2.73
2023-01-19T04:39:36.204Z,-2.73
2023-01-19T04:40:37.396Z,-2.77
2023-01-19T04:41:38.580Z,-2.79
2023-01-19T04:42:43.276Z,-2.82
2023-01-19T04:43:44.527Z,-2.83
2023-01-19T04:44:45.820Z,-2.82
2023-01-19T04:45:47.256Z,-2.84
2023-01-19T04:46:48.647Z,-2.85
2023-01-19T04:47:50.731Z,-2.85
2023-01-19T04:48:51.932Z,-2.84
2023-01-19T04:49:53.175Z,-2.83
2023-01-19T04:50:54.405Z,-2.83
2023-01-19T04:51:55.616Z,-2.84
2023-01-19T04:52:56.970Z,-2.84
2023-01-19T04:53:58.224Z,-2.85
2023-01-19T04:54:59.505Z,-2.87
2023-01-19T04:56:00.747Z,-2.89
2023-01-19T04:57:01.995Z,-2.88
2023-01-19T04:58:03.225Z,-2.88
2023-01-19T04:59:04.465Z,-2.90
2023-01-19T05:00:06.348Z,-2.94
2023-01-19T05:01:08.344Z,-2.96
2023-01-19T05:02:09.662Z,-2.97
2023-01-19T05:03:10.945Z,-3.00
2023-01-19T05:04:12.203Z,-3.02
2023-01-19T05:05:13.461Z,-3.03
2023-01-19T05:06:14.711Z,-3.03
2023-01-19T05:07:16.002Z,-3.00
2023-01-19T05:08:17.203Z,-2.96
2023-01-19T05:09:18.412Z,-2.97
2023-01-19T05:10:19.644Z,-2.97
2023-01-19T05:11:20.858Z,-2.96
2023-01-19T05:12:22.049Z,-2.97
2023-01-19T05:13:23.578Z,-2.94
2023-01-19T05:14:24.799Z,-2.96
2023-01-19T05:15:26.049Z,-2.98
2023-01-19T05:16:27.310Z,-3.00
2023-01-19T05:17:28.567Z,-3.01
2023-01-19T05:18:29.821Z,-3.01
2023-01-19T05:19:31.135Z,-3.03
2023-01-19T05:20:32.338Z,-3.03
2023-01-19T05:21:33.625Z,-3.06
2023-01-19T05:22:34.885Z,-3.07
2023-01-19T05:23:36.204Z,-3.07
2023-01-19T05:24:37.416Z,-3.12
2023-01-19T05:25:38.678Z,-3.11
2023-01-19T05:26:39.975Z,-3.12
2023-01-19T05:27:41.214Z,-3.11
2023-01-19T05:28:42.435Z,-3.12
2023-01-19T05:29:43.699Z,-3.11
2023-01-19T05:30:44.952Z,-3.11
2023-01-19T05:31:46.284Z,-3.12
2023-01-19T05:32:47.554Z,-3.15
2023-01-19T05:33:48.789Z,-3.11
2023-01-19T05:34:50.065Z,-3.11
2023-01-19T05:35:51.945Z,-3.14
2023-01-19T05:36:53.195Z,-3.13
2023-01-19T05:37:54.393Z,-3.15
2023-01-19T05:38:56.868Z,-3.12
2023-01-19T05:39:58.317Z,-3.07
2023-01-19T05:40:59.576Z,-3.12
2023-01-19T05:42:00.797Z,-3.12
2023-01-19T05:43:02.351Z,-3.13
2023-01-19T05:44:03.894Z,-3.17
2023-01-19T05:45:05.328Z,-3.21
2023-01-19T05:46:06.555Z,-3.19
2023-01-19T05:47:07.748Z,-3.17
2023-01-19T05:48:10.124Z,-3.17
2023-01-19T05:49:11.973Z,-3.17
2023-01-19T05:50:13.212Z,-3.22
2023-01-19T05:51:14.436Z,-3.23
2023-01-19T05:52:15.628Z,-3.23
2023-01-19T05:53:16.916Z,-3.24
2023-01-19T05:54:18.139Z,-3.22
2023-01-19T05:55:19.958Z,-3.23
2023-01-19T05:56:21.195Z,-3.24
2023-01-19T05:57:22.771Z,-3.20
2023-01-19T05:58:24.012Z,-3.17
2023-01-19T05:59:25.224Z,-3.19
2023-01-19T06:00:26.805Z,-3.20
2023-01-19T06:01:28.211Z,-3.18
2023-01-19T06:02:29.567Z,-3.15
2023-01-19T06:03:31.472Z,-3.14
2023-01-19T06:04:32.700Z,-3.10
2023-01-19T06:05:33.948Z,-3.11
2023-01-19T06:06:35.214Z,-3.10
2023-01-19T06:07:36.490Z,-3.07
2023-01-19T06:08:37.689Z,-3.09
2023-01-19T06:09:38.913Z,-3.10
2023-01-19T06:10:40.112Z,-3.11
2023-01-19T06:11:41.311Z,-3.13
2023-01-19T06:12:42.718Z,-3.14
2023-01-19T06:13:44.113Z,-3.17
2023-01-19T06:14:45.417Z,-3.18
2023-01-19T06:15:46.708Z,-3.16
2023-01-19T06:16:47.979Z,-3.16
2023-01-19T06:17:49.274Z,-3.15
2023-01-19T06:18:50.495Z,-3.12
2023-01-19T06:19:51.798Z,-3.15
2023-01-19T06:20:53.425Z,-3.17
2023-01-19T06:21:54.761Z,-3.19
2023-01-19T06:22:59.279Z,-3.21
2023-01-19T06:24:00.988Z,-3.22
2023-01-19T06:25:02.460Z,-3.19
2023-01-19T06:26:03.770Z,-3.20
2023-01-19T06:27:04.997Z,-3.20
2023-01-19T06:28:06.190Z,-3.22
2023-01-19T06:29:08.540Z,-3.22
2023-01-19T06:30:10.252Z,-3.20
2023-01-19T06:31:11.558Z,-3.23
2023-01-19T06:32:12.828Z,-3.20
2023-01-19T06:33:14.086Z,-3.23
2023-01-19T06:34:15.311Z,-3.21
2023-01-19T06:35:16.521Z,-3.15
2023-01-19T06:36:17.803Z,-3.13
2023-01-19T06:37:19.103Z,-3.10
2023-01-19T06:38:20.474Z,-3.06
2023-01-19T06:39:21.805Z,-3.00
2023-01-19T06:40:23.049Z,-2.97
2023-01-19T06:41:24.348Z,-2.92
2023-01-19T06:42:25.554Z,-2.85
2023-01-19T06:43:26.746Z,-2.82
2023-01-19T06:44:28.002Z,-2.77
2023-01-19T06:45:29.270Z,-2.72
2023-01-19T06:46:30.932Z,-2.66
2023-01-19T06:47:32.239Z,-2.62
2023-01-19T06:48:33.768Z,-2.52
2023-01-19T06:49:35.017Z,-2.50
2023-01-19T06:50:36.277Z,-2.47
2023-01-19T06:51:37.551Z,-2.46
2023-01-19T06:52:38.745Z,-2.43
2023-01-19T06:53:39.947Z,-2.39
2023-01-19T06:54:41.388Z,-2.37
2023-01-19T06:55:43.127Z,-2.35
2023-01-19T06:56:44.453Z,-2.31
2023-01-19T06:57:45.652Z,-2.29
2023-01-19T06:58:47.239Z,-2.26
2023-01-19T06:59:48.478Z,-2.24
2023-01-19T07:00:49.873Z,-2.28
2023-01-19T07:01:51.249Z,-2.28
2023-01-19T07:02:52.852Z,-2.30
2023-01-19T07:03:54.091Z,-2.30
2023-01-19T07:04:55.905Z,-2.31
2023-01-19T07:05:57.202Z,-2.28
2023-01-19T07:07:01.079Z,-2.30
2023-01-19T07:08:02.514Z,-2.33
2023-01-19T07:09:03.775Z,-2.35
2023-01-19T07:10:08.103Z,-2.34
2023-01-19T07:11:22.390Z,-2.35
2023-01-19T07:12:30.135Z,-2.37
2023-01-19T07:13:35.755Z,-2.36
2023-01-19T07:14:37.075Z,-2.37
2023-01-19T07:15:38.332Z,-2.37
2023-01-19T07:16:39.879Z,-2.35
2023-01-19T07:17:41.145Z,-2.35
2023-01-19T07:18:42.373Z,-2.36
2023-01-19T07:19:43.613Z,-2.36
2023-01-19T07:20:44.855Z,-2.32
2023-01-19T07:21:46.048Z,-2.31
2023-01-19T07:22:47.300Z,-2.29
2023-01-19T07:23:49.358Z,-2.28
2023-01-19T07:24:50.583Z,-2.28
2023-01-19T07:25:51.855Z,-2.27
2023-01-19T07:26:53.112Z,-2.26
2023-01-19T07:27:58.108Z,-2.25
2023-01-19T07:28:59.299Z,-2.26
2023-01-19T07:30:00.678Z,-2.25
2023-01-19T07:31:02.033Z,-2.24
2023-01-19T07:32:03.630Z,-2.22
2023-01-19T07:33:04.929Z,-2.21
2023-01-19T07:34:06.182Z,-2.19
2023-01-19T07:35:07.592Z,-2.20
2023-01-19T07:36:09.292Z,-2.18
2023-01-19T07:37:10.627Z,-2.16
2023-01-19T07:38:11.837Z,-2.15
2023-01-19T07:39:13.431Z,-2.16
2023-01-19T07:40:14.824Z,-2.16
2023-01-19T07:41:16.120Z,-2.17
2023-01-19T07:42:17.401Z,-2.19
2023-01-19T07:43:18.674Z,-2.12
2023-01-19T07:44:19.920Z,-2.08
2023-01-19T07:45:21.207Z,-2.08
2023-01-19T07:46:22.495Z,-2.08
2023-01-19T07:47:23.763Z,-2.11
2023-01-19T07:48:25.039Z,-2.14
2023-01-19T07:49:26.296Z,-2.13
2023-01-19T07:50:27.565Z,-2.13
2023-01-19T07:51:28.979Z,-2.14
2023-01-19T07:52:30.254Z,-2.13
2023-01-19T07:53:31.502Z,-2.08
2023-01-19T07:54:32.768Z,-2.09
2023-01-19T07:55:33.966Z,-2.06
2023-01-19T07:56:35.267Z,-2.04
2023-01-19T07:57:36.543Z,-2.03
2023-01-19T07:58:38.104Z,-2.00
2023-01-19T07:59:39.343Z,-2.00
2023-01-19T08:00:40.584Z,-1.99
2023-01-19T08:01:41.985Z,-1.98
2023-01-19T08:02:43.322Z,-1.97
2023-01-19T08:03:44.600Z,-1.96
2023-01-19T08:04:47.605Z,-1.93
2023-01-19T08:05:52.400Z,-1.94
2023-01-19T08:06:54.164Z,-1.96
2023-01-19T08:07:55.911Z,-1.99
2023-01-19T08:08:57.104Z,-2.00
2023-01-19T08:09:58.399Z,-2.01
2023-01-19T08:10:59.760Z,-1.97
2023-01-19T08:12:00.960Z,-1.97
2023-01-19T08:13:02.696Z,-1.96
2023-01-19T08:14:05.779Z,-1.95
2023-01-19T08:15:09.368Z,-1.96
2023-01-19T08:16:10.727Z,-1.95
2023-01-19T08:17:12.770Z,-1.92
2023-01-19T08:18:13.972Z,-1.89
2023-01-19T08:19:15.228Z,-1.86
2023-01-19T08:20:16.532Z,-1.81
2023-01-19T08:21:17.730Z,-1.80
2023-01-19T08:22:18.957Z,-1.79
2023-01-19T08:23:20.256Z,-1.74
2023-01-19T08:24:22.567Z,-1.71
2023-01-19T08:25:23.856Z,-1.70
2023-01-19T08:26:32.240Z,-1.68
2023-01-19T08:27:33.468Z,-1.65
2023-01-19T08:28:34.825Z,-1.63
2023-01-19T08:29:36.358Z,-1.58
2023-01-19T08:30:37.842Z,-1.60
2023-01-19T08:31:39.439Z,-1.59
2023-01-19T08:32:40.832Z,-1.56
2023-01-19T08:33:42.083Z,-1.52
2023-01-19T08:34:43.376Z,-1.44
2023-01-19T08:35:47.082Z,-1.42
2023-01-19T08:36:48.274Z,-1.38
2023-01-19T08:37:49.774Z,-1.35
2023-01-19T08:38:51.096Z,-1.34
2023-01-19T08:39:52.326Z,-1.32
2023-01-19T08:40:53.588Z,-1.28
2023-01-19T08:41:54.788Z,-1.25
2023-01-19T08:42:59.795Z,-1.22
2023-01-19T08:44:01.228Z,-1.16
2023-01-19T08:45:02.525Z,-1.13
2023-01-19T08:46:04.388Z,-1.08
2023-01-19T08:47:05.739Z,-1.04
2023-01-19T08:48:07.016Z,-0.98
2023-01-19T08:49:08.282Z,-0.93
2023-01-19T08:50:09.911Z,-0.86
2023-01-19T08:51:11.876Z,-0.83
2023-01-19T08:52:13.121Z,-0.77
2023-01-19T08:53:14.882Z,-0.75
2023-01-19T08:54:18.252Z,-0.75
2023-01-19T08:55:19.865Z,-0.70
2023-01-19T08:56:21.083Z,-0.67
2023-01-19T08:57:22.297Z,-0.64
2023-01-19T08:58:23.607Z,-0.65
2023-01-19T08:59:27.959Z,-0.64
2023-01-19T09:00:29.745Z,-0.61
2023-01-19T09:01:31.123Z,-0.54
2023-01-19T09:02:32.589Z,-0.49
2023-01-19T09:03:34.690Z,-0.47
2023-01-19T09:04:35.939Z,-0.46
2023-01-19T09:05:37.749Z,-0.44
2023-01-19T09:06:38.935Z,-0.38
2023-01-19T09:07:40.203Z,-0.34
2023-01-19T09:08:41.516Z,-0.37
2023-01-19T09:09:42.763Z,-0.37
2023-01-19T09:10:45.861Z,-0.36
2023-01-19T09:11:47.103Z,-0.32
2023-01-19T09:12:48.310Z,-0.29
2023-01-19T09:13:49.515Z,-0.24
2023-01-19T09:14:50.989Z,-0.24
2023-01-19T09:15:52.398Z,-0.24
2023-01-19T09:16:53.669Z,-0.22
2023-01-19T09:17:54.943Z,-0.20
2023-01-19T09:18:56.180Z,-0.18
2023-01-19T09:19:57.410Z,-0.17
2023-01-19T09:20:58.982Z,-0.16
2023-01-19T09:22:00.188Z,-0.14
2023-01-19T09:23:01.574Z,-0.13
2023-01-19T09:24:02.841Z,-0.11
2023-01-19T09:25:04.200Z,-0.10
2023-01-19T09:26:05.946Z,-0.05
2023-01-19T09:27:07.269Z,-0.03
2023-01-19T09:28:09.488Z,0.02
2023-01-19T09:29:13.008Z,0.01
2023-01-19T09:30:14.346Z,0.03
2023-01-19T09:31:15.664Z,0.05
2023-01-19T09:32:16.929Z,0.10
2023-01-19T09:33:18.825Z,0.13
2023-01-19T09:34:20.184Z,0.14
2023-01-19T09:35:21.452Z,0.16
2023-01-19T09:36:22.759Z,0.18
2023-01-19T09:37:24.059Z,0.20
2023-01-19T09:38:25.343Z,0.20
2023-01-19T09:39:26.598Z,0.26
2023-01-19T09:40:28.254Z,0.28
2023-01-19T09:41:30.715Z,0.31
2023-01-19T09:42:34.770Z,0.34
2023-01-19T09:43:41.273Z,0.35
2023-01-19T09:44:44.540Z,0.35
2023-01-19T09:45:49.557Z,0.40
2023-01-19T09:46:50.889Z,0.40
2023-01-19T09:47:53.425Z,0.45
2023-01-19T09:48:55.754Z,0.48
2023-01-19T09:50:05.088Z,0.51
2023-01-19T09:51:07.343Z,0.55
2023-01-19T09:52:10.617Z,0.56
2023-01-19T09:53:16.605Z,0.57
2023-01-19T09:54:20.062Z,0.62
2023-01-19T09:55:24.943Z,0.65
2023-01-19T09:56:27.184Z,0.69
2023-01-19T09:57:28.516Z,0.73
2023-01-19T09:58:29.741Z,0.78
2023-01-19T09:59:31.889Z,0.79
2023-01-19T10:00:33.195Z,0.82
2023-01-19T10:01:43.568Z,0.85
2023-01-19T10:02:48.489Z,0.91
2023-01-19T10:03:54.107Z,0.99
2023-01-19T10:05:24.964Z,1.04
2023-01-19T10:06:26.728Z,1.11
2023-01-19T10:07:31.014Z,1.15
2023-01-19T10:08:46.875Z,1.19
2023-01-19T10:09:48.120Z,1.21
2023-01-19T10:10:52.811Z,1.20
2023-01-19T10:11:57.910Z,1.22
2023-01-19T10:13:22.051Z,1.26
2023-01-19T10:14:33.974Z,1.29
2023-01-19T10:15:35.167Z,1.31
2023-01-19T10:16:36.383Z,1.31
2023-01-19T10:17:53.171Z,1.30
2023-01-19T10:18:57.537Z,1.34
2023-01-19T10:20:01.412Z,1.36
2023-01-19T10:21:10.441Z,1.42
2023-01-19T10:22:20.344Z,1.44
2023-01-19T10:23:30.513Z,1.48
2023-01-19T10:24:36.101Z,1.56
2023-01-19T10:25:37.342Z,1.53
2023-01-19T10:26:42.388Z,1.60
2023-01-19T10:27:44.071Z,1.56
2023-01-19T10:28:46.824Z,1.51
2023-01-19T10:29:48.099Z,1.44
2023-01-19T10:30:50.524Z,1.41
2023-01-19T10:31:52.702Z,1.41
2023-01-19T10:32:54.077Z,1.38
2023-01-19T10:33:55.481Z,1.41
2023-01-19T10:34:57.969Z,1.43
2023-01-19T10:35:59.182Z,1.44
2023-01-19T10:37:04.146Z,1.50
2023-01-19T10:38:05.523Z,1.56
2023-01-19T10:39:07.919Z,1.62
2023-01-19T10:40:09.224Z,1.66
2023-01-19T10:41:23.530Z,1.68
2023-01-19T10:42:28.685Z,1.68
2023-01-19T10:43:45.761Z,1.69
2023-01-19T10:44:47.240Z,1.75
2023-01-19T10:45:50.129Z,1.82
2023-01-19T10:46:52.632Z,1.83
2023-01-19T10:47:55.202Z,1.88
2023-01-19T10:48:56.467Z,1.90
2023-01-19T10:49:57.858Z,1.90
2023-01-19T10:51:03.631Z,1.88
2023-01-19T10:52:06.051Z,1.89
2023-01-19T10:53:17.888Z,1.88
2023-01-19T10:54:19.846Z,1.93
2023-01-19T10:55:25.672Z,1.93
2023-01-19T10:56:29.404Z,1.95
2023-01-19T10:57:32.382Z,1.92
2023-01-19T10:58:34.854Z,1.94
2023-01-19T10:59:56.353Z,1.93
2023-01-19T11:01:12.328Z,1.92
2023-01-19T11:02:27.352Z,1.93
2023-01-19T11:03:29.786Z,1.98
2023-01-19T11:04:30.985Z,1.99
2023-01-19T11:05:33.324Z,2.00
2023-01-19T11:06:34.612Z,2.01
2023-01-19T11:07:35.961Z,2.04
2023-01-19T11:08:37.217Z,2.03
2023-01-19T11:09:38.515Z,2.04
2023-01-19T11:10:39.799Z,1.99
2023-01-19T11:11:42.766Z,1.99
2023-01-19T11:12:47.443Z,2.01
2023-01-19T11:14:24.078Z,2.01
2023-01-19T11:15:29.218Z,2.00
2023-01-19T11:16:31.868Z,2.04
2023-01-19T11:17:33.328Z,2.02
2023-01-19T11:18:36.653Z,2.01
2023-01-19T11:19:37.919Z,2.06
2023-01-19T11:20:41.740Z,2.08
2023-01-19T11:21:43.060Z,2.08
2023-01-19T11:22:44.463Z,2.13
2023-01-19T11:23:50.390Z,2.18
2023-01-19T11:24:51.723Z,2.15
2023-01-19T11:25:54.211Z,2.17
2023-01-19T11:26:56.676Z,2.19
2023-01-19T11:27:58.040Z,2.19
2023-01-19T11:29:01.088Z,2.17
2023-01-19T11:30:06.090Z,2.14
2023-01-19T11:31:10.209Z,2.17
2023-01-19T11:32:19.226Z,2.17
2023-01-19T11:33:24.752Z,2.20
2023-01-19T11:34:30.688Z,2.22
2023-01-19T11:35:35.178Z,2.27
2023-01-19T11:36:36.488Z,2.33
2023-01-19T11:37:37.708Z,2.38
2023-01-19T11:38:43.376Z,2.42
2023-01-19T11:39:46.161Z,2.49
2023-01-19T11:40:51.601Z,2.56
2023-01-19T11:41:54.976Z,2.51
2023-01-19T11:42:57.608Z,2.50
2023-01-19T11:44:19.115Z,2.48
2023-01-19T11:45:20.536Z,2.43
2023-01-19T11:46:23.719Z,2.42
2023-01-19T11:47:27.160Z,2.37
2023-01-19T11:48:42.144Z,2.37
2023-01-19T11:49:43.368Z,2.32
2023-01-19T11:50:45.297Z,2.26
2023-01-19T11:51:50.847Z,2.26
2023-01-19T11:52:57.567Z,2.27
2023-01-19T11:53:59.240Z,2.21
2023-01-19T11:55:07.053Z,2.19
2023-01-19T11:56:10.443Z,2.19
2023-01-19T11:57:16.237Z,2.20
2023-01-19T11:58:18.357Z,2.17
2023-01-19T11:59:21.620Z,2.12
2023-01-19T12:00:34.739Z,2.10
2023-01-19T12:01:40.561Z,2.05
2023-01-19T12:02:43.527Z,2.00
2023-01-19T12:03:56.800Z,1.96
2023-01-19T12:05:00.869Z,1.93
2023-01-19T12:06:07.425Z,1.88
2023-01-19T12:07:11.448Z,1.82
2023-01-19T12:08:16.332Z,1.76
2023-01-19T12:09:26.300Z,1.71
2023-01-19T12:10:33.445Z,1.69
2023-01-19T12:11:37.334Z,1.68
2023-01-19T12:12:39.585Z,1.65
2023-01-19T12:13:41.054Z,1.66
2023-01-19T12:14:55.671Z,1.65
2023-01-19T12:16:00.761Z,1.65
2023-01-19T12:17:02.953Z,1.64
2023-01-19T12:18:05.836Z,1.64
2023-01-19T12:19:13.668Z,1.64
2023-01-19T12:20:33.736Z,1.62
2023-01-19T12:21:35.489Z,1.61
2023-01-19T12:22:42.855Z,1.61
2023-01-19T12:23:47.007Z,1.61
2023-01-19T12:24:57.339Z,1.57
2023-01-19T12:26:17.241Z,1.54
2023-01-19T12:27:26.709Z,1.54
2023-01-19T12:28:30.326Z,1.55
2023-01-19T12:29:33.631Z,1.52
2023-01-19T12:30:35.752Z,1.39
2023-01-19T12:31:37.238Z,1.38
2023-01-19T12:32:38.505Z,1.31
2023-01-19T12:33:40.183Z,1.27
2023-01-19T12:34:44.245Z,1.27
2023-01-19T12:35:58.499Z,1.25
2023-01-19T12:37:03.778Z,1.26
2023-01-19T12:38:22.837Z,1.27
2023-01-19T12:39:24.044Z,1.29
2023-01-19T12:40:27.601Z,1.33
2023-01-19T12:41:34.059Z,1.29
2023-01-19T12:42:35.332Z,1.25
2023-01-19T12:43:36.611Z,1.24
2023-01-19T12:44:38.035Z,1.28
2023-01-19T12:45:39.242Z,1.27
2023-01-19T12:46:43.185Z,1.24
2023-01-19T12:47:52.931Z,1.21
2023-01-19T12:48:54.973Z,1.17
2023-01-19T12:49:58.108Z,1.21
2023-01-19T12:50:59.361Z,1.17
2023-01-19T12:52:19.142Z,1.18
2023-01-19T12:53:20.901Z,1.14
2023-01-19T12:54:31.854Z,1.16
2023-01-19T12:55:35.539Z,1.13
2023-01-19T12:56:37.887Z,1.10
2023-01-19T12:57:45.254Z,1.09
2023-01-19T12:58:48.256Z,1.05
2023-01-19T12:59:55.437Z,1.07
2023-01-19T13:01:12.278Z,1.07
2023-01-19T13:02:19.661Z,1.09
2023-01-19T13:03:29.776Z,1.14
2023-01-19T13:04:32.257Z,1.15
2023-01-19T13:05:39.361Z,1.17
2023-01-19T13:06:46.827Z,1.14
2023-01-19T13:08:06.538Z,1.11
2023-01-19T13:09:26.208Z,1.10
2023-01-19T13:10:46.016Z,1.16
2023-01-19T13:12:05.971Z,1.17
2023-01-19T13:13:17.217Z,1.23
2023-01-19T13:14:35.157Z,1.25
2023-01-19T13:15:38.942Z,1.28
2023-01-19T13:16:40.271Z,1.25
2023-01-19T13:17:51.139Z,1.27
2023-01-19T13:18:55.233Z,1.27
2023-01-19T13:20:18.600Z,1.29
2023-01-19T13:21:31.958Z,1.33
2023-01-19T13:22:55.619Z,1.37
2023-01-19T13:23:58.105Z,1.42
2023-01-19T13:25:07.384Z,1.45
2023-01-19T13:26:13.133Z,1.46
2023-01-19T13:27:14.645Z,1.48
2023-01-19T13:28:17.204Z,1.51
2023-01-19T13:29:31.992Z,1.53
2023-01-19T13:30:33.781Z,1.56
2023-01-19T13:31:36.141Z,1.54
2023-01-19T13:32:40.292Z,1.56
2023-01-19T13:33:52.335Z,1.57
2023-01-19T13:34:57.630Z,1.57
2023-01-19T13:35:59.055Z,1.61
2023-01-19T13:37:00.525Z,1.63
2023-01-19T13:38:02.457Z,1.65
2023-01-19T13:39:13.472Z,1.71
2023-01-19T13:40:20.232Z,1.71
2023-01-19T13:41:23.400Z,1.71
2023-01-19T13:42:30.836Z,1.72
2023-01-19T13:43:34.553Z,1.74